Time;durP1;ratioP1;P1;durP2;ratioP2;P2;SDS_P1;SDS_P2;PMS_P1;PMS_P2;Temp;Humidity;BMP_temperature;BMP_pressure;BME280_temperature;BME280_humidity;BME280_pressure;Samples;Min_cycle;Max_cycle;Signal;HPM_P1;HPM_P2
2022/06/06 00:01:43;;;;;;;0.00;0.00;;;14.60;93.50;;;;;;5029806;28;20494;-72
2022/06/06 00:04:10;;;;;;;0.00;0.00;;;14.50;93.40;;;;;;5030310;28;20056;-71
2022/06/06 00:06:36;;;;;;;0.05;0.05;;;14.50;93.50;;;;;;5031052;28;20057;-71
2022/06/06 00:09:03;;;;;;;0.00;0.00;;;14.50;93.40;;;;;;5031180;28;20068;-71
2022/06/06 00:11:34;;;;;;;0.00;0.00;;;14.50;93.40;;;;;;5029852;28;20092;-71
2022/06/06 00:14:01;;;;;;;1.15;1.05;;;14.50;93.50;;;;;;5031328;28;20132;-71
2022/06/06 00:16:26;;;;;;;0.10;0.10;;;14.50;93.60;;;;;;5030955;28;20136;-71
2022/06/06 00:18:52;;;;;;;0.00;0.00;;;14.50;93.50;;;;;;5026318;28;20064;-71
2022/06/06 00:21:18;;;;;;;0.35;0.35;;;14.50;93.50;;;;;;5023673;28;20072;-71
2022/06/06 00:23:43;;;;;;;0.10;0.10;;;14.50;93.40;;;;;;5031166;28;20914;-71
2022/06/06 00:26:12;;;;;;;0.00;0.00;;;14.40;93.50;;;;;;5030637;28;20124;-71
2022/06/06 00:28:40;;;;;;;0.10;0.10;;;14.40;93.60;;;;;;5030521;28;20146;-71
2022/06/06 00:36:37;;;;;;;0.00;0.00;;;14.30;93.60;;;;;;5030664;28;20136;-71
2022/06/06 00:39:04;;;;;;;0.00;0.00;;;14.30;93.70;;;;;;5031211;28;20042;-71
2022/06/06 00:41:30;;;;;;;0.00;0.00;;;14.30;93.80;;;;;;5030271;28;20056;-71
2022/06/06 00:44:08;;;;;;;0.00;0.00;;;14.30;93.80;;;;;;5030434;28;20045;-71
2022/06/06 00:46:37;;;;;;;0.38;0.38;;;14.30;93.80;;;;;;5030154;28;20038;-71
2022/06/06 00:49:05;;;;;;;0.13;0.13;;;14.30;93.60;;;;;;5030824;28;20055;-71
2022/06/06 00:51:32;;;;;;;0.80;0.68;;;14.30;93.70;;;;;;5030302;28;20384;-71
2022/06/06 00:53:58;;;;;;;0.00;0.00;;;14.20;93.70;;;;;;5045334;28;20053;-71
2022/06/06 00:56:35;;;;;;;0.00;0.00;;;14.10;93.70;;;;;;5036338;28;20109;-71
2022/06/06 00:59:05;;;;;;;0.00;0.00;;;14.10;93.80;;;;;;5011009;28;20046;-71
2022/06/06 01:01:34;;;;;;;0.03;0.03;;;14.10;93.80;;;;;;5030350;28;20084;-71
2022/06/06 01:04:02;;;;;;;0.22;0.22;;;14.10;93.80;;;;;;5029774;28;20409;-71
2022/06/06 01:06:31;;;;;;;0.00;0.00;;;14.10;93.90;;;;;;5029798;28;20128;-71
2022/06/06 01:08:58;;;;;;;0.00;0.00;;;14.10;94.00;;;;;;5030302;28;20133;-72
2022/06/06 01:11:24;;;;;;;0.00;0.00;;;14.10;93.80;;;;;;5029949;28;20061;-71
2022/06/06 01:13:52;;;;;;;0.00;0.00;;;14.10;93.90;;;;;;5028305;28;20053;-71
2022/06/06 01:16:33;;;;;;;0.10;0.10;;;14.10;93.80;;;;;;5027405;28;20092;-71
2022/06/06 01:19:36;;;;;;;0.60;0.60;;;14.10;93.80;;;;;;5029994;28;20049;-72
2022/06/06 01:22:40;;;;;;;0.10;0.10;;;14.10;93.80;;;;;;5029397;28;20055;-71
2022/06/06 01:25:56;;;;;;;0.00;0.00;;;14.10;93.80;;;;;;4991206;28;20517;-72
2022/06/06 01:28:48;;;;;;;0.70;0.40;;;14.10;93.90;;;;;;4990466;28;20054;-71
2022/06/06 01:31:22;;;;;;;0.10;0.10;;;14.10;94.00;;;;;;5016318;28;20068;-71
2022/06/06 01:33:58;;;;;;;0.00;0.00;;;14.10;94.00;;;;;;5029023;28;20049;-72
2022/06/06 01:36:27;;;;;;;0.05;0.05;;;14.00;94.00;;;;;;5029397;28;20053;-71
2022/06/06 01:38:53;;;;;;;0.00;0.00;;;14.00;94.10;;;;;;5029699;28;20470;-71
2022/06/06 01:41:34;;;;;;;0.00;0.00;;;14.00;94.20;;;;;;5029242;28;20037;-72
2022/06/06 01:44:07;;;;;;;0.40;0.40;;;14.10;94.20;;;;;;5029658;28;20042;-71
2022/06/06 01:46:36;;;;;;;0.00;0.00;;;14.10;94.20;;;;;;5013647;28;20091;-72
2022/06/06 01:49:04;;;;;;;0.90;0.90;;;14.10;94.20;;;;;;5029271;28;20727;-71
2022/06/06 01:51:31;;;;;;;0.20;0.20;;;14.10;94.20;;;;;;5028471;28;20056;-72
2022/06/06 01:53:57;;;;;;;0.03;0.03;;;14.10;94.20;;;;;;5029484;28;20521;-71
2022/06/06 01:56:29;;;;;;;0.00;0.00;;;14.00;94.20;;;;;;5029380;28;20042;-71
2022/06/06 01:58:55;;;;;;;0.30;0.30;;;14.10;94.20;;;;;;5029184;28;20045;-71
2022/06/06 02:01:21;;;;;;;0.00;0.00;;;14.00;94.20;;;;;;5027752;28;20041;-71
2022/06/06 02:03:47;;;;;;;0.10;0.10;;;14.00;94.20;;;;;;5029469;28;20036;-71
2022/06/06 02:06:13;;;;;;;0.00;0.00;;;14.10;94.20;;;;;;5029237;28;20042;-71
2022/06/06 02:08:40;;;;;;;0.20;0.20;;;14.00;94.20;;;;;;5029564;28;20103;-71
2022/06/06 02:11:05;;;;;;;0.00;0.00;;;14.10;94.20;;;;;;5028641;28;20063;-71
2022/06/06 02:13:32;;;;;;;0.00;0.00;;;14.10;94.20;;;;;;5029584;28;20150;-71
2022/06/06 02:15:57;;;;;;;14.48;4.38;;;14.10;94.30;;;;;;5029449;28;20128;-71
2022/06/06 02:18:23;;;;;;;0.05;0.05;;;14.10;94.20;;;;;;5029267;28;20109;-71
2022/06/06 02:20:49;;;;;;;0.00;0.00;;;14.10;94.20;;;;;;5029301;28;20053;-71
2022/06/06 02:23:15;;;;;;;0.30;0.30;;;14.10;94.10;;;;;;5029435;28;20092;-71
2022/06/06 02:25:41;;;;;;;0.00;0.00;;;14.00;94.20;;;;;;5029080;28;20141;-71
2022/06/06 02:28:07;;;;;;;0.00;0.00;;;14.10;94.20;;;;;;5029130;28;20120;-71
2022/06/06 02:30:35;;;;;;;0.70;0.30;;;14.10;94.20;;;;;;5028940;28;20041;-71
2022/06/06 02:33:02;;;;;;;0.00;0.00;;;14.10;94.20;;;;;;5029183;28;20034;-71
2022/06/06 02:35:31;;;;;;;0.03;0.03;;;14.10;94.10;;;;;;5028596;28;20469;-71
2022/06/06 02:37:57;;;;;;;0.00;0.00;;;14.10;94.10;;;;;;5028973;28;20050;-71
2022/06/06 02:40:25;;;;;;;0.20;0.20;;;14.10;94.20;;;;;;5029073;28;20053;-71
2022/06/06 02:42:51;;;;;;;0.00;0.00;;;14.10;94.10;;;;;;5029160;28;20176;-71
2022/06/06 02:45:17;;;;;;;0.00;0.00;;;14.10;94.10;;;;;;5031201;28;20616;-71
2022/06/06 02:47:46;;;;;;;0.00;0.00;;;14.10;94.20;;;;;;5032390;28;20798;-71
2022/06/06 02:50:13;;;;;;;0.00;0.00;;;14.10;94.10;;;;;;5032420;28;20456;-71
2022/06/06 02:52:39;;;;;;;0.10;0.10;;;14.10;94.20;;;;;;5048620;28;20243;-71
2022/06/06 02:55:06;;;;;;;0.00;0.00;;;14.10;94.10;;;;;;5033130;28;20134;-71
2022/06/06 02:57:43;;;;;;;0.00;0.00;;;14.10;94.00;;;;;;5031483;28;20082;-71
2022/06/06 03:00:12;;;;;;;0.00;0.00;;;14.10;94.10;;;;;;5032172;28;20324;-71
2022/06/06 03:02:38;;;;;;;0.00;0.00;;;14.10;94.10;;;;;;5031716;28;20574;-71
2022/06/06 03:05:05;;;;;;;0.00;0.00;;;14.10;94.00;;;;;;5031926;28;20525;-71
2022/06/06 03:07:59;;;;;;;0.00;0.00;;;14.10;94.10;;;;;;5032612;28;20399;-71
2022/06/06 03:10:51;;;;;;;0.00;0.00;;;14.10;94.00;;;;;;5032413;28;20050;-71
2022/06/06 03:13:50;;;;;;;2.30;0.57;;;14.10;94.00;;;;;;5032349;28;20271;-71
2022/06/06 03:23:23;;;;;;;0.00;0.00;;;14.10;94.00;;;;;;5032114;28;20537;-71
2022/06/06 03:26:08;;;;;;;0.00;0.00;;;14.10;94.10;;;;;;5034248;28;20056;-71
2022/06/06 03:28:54;;;;;;;0.10;0.10;;;14.10;94.10;;;;;;5045219;28;20045;-71
2022/06/06 03:31:57;;;;;;;0.00;0.00;;;14.20;94.10;;;;;;5032017;28;20047;-71
2022/06/06 03:34:22;;;;;;;;;;;14.20;94.20;;;;;;5032704;28;20059;-71
2022/06/06 03:37:37;;;;;;;0.10;0.10;;;14.20;94.20;;;;;;5031457;28;20370;-71
2022/06/06 03:40:18;;;;;;;0.20;0.20;;;14.20;94.20;;;;;;5010009;28;20046;-71
2022/06/06 03:42:58;;;;;;;0.00;0.00;;;14.20;94.20;;;;;;5018007;28;20387;-71
2022/06/06 03:45:33;;;;;;;0.00;0.00;;;14.20;94.20;;;;;;5031231;28;20044;-71
2022/06/06 03:48:07;;;;;;;0.00;0.00;;;14.20;94.20;;;;;;5031348;28;20466;-71
2022/06/06 03:50:32;;;;;;;0.00;0.00;;;14.20;94.20;;;;;;5031016;28;20103;-71
2022/06/06 03:53:12;;;;;;;0.00;0.00;;;14.30;94.20;;;;;;5031500;28;20045;-71
2022/06/06 03:56:16;;;;;;;0.00;0.00;;;14.30;94.20;;;;;;5030838;28;20041;-71
2022/06/06 03:58:43;;;;;;;0.00;0.00;;;14.30;94.10;;;;;;5020232;28;20045;-71
2022/06/06 04:01:11;;;;;;;0.00;0.00;;;14.30;94.10;;;;;;5031171;28;20506;-71
2022/06/06 04:03:38;;;;;;;0.00;0.00;;;14.30;94.10;;;;;;5031644;28;20072;-71
2022/06/06 04:06:05;;;;;;;0.00;0.00;;;14.30;94.10;;;;;;5031296;28;20041;-71
2022/06/06 04:08:32;;;;;;;0.00;0.00;;;14.30;94.10;;;;;;5031483;28;20041;-71
2022/06/06 04:11:16;;;;;;;0.00;0.00;;;14.30;94.00;;;;;;5031104;28;20070;-71
2022/06/06 04:13:54;;;;;;;0.00;0.00;;;14.20;93.90;;;;;;5030271;28;20449;-71
2022/06/06 04:16:28;;;;;;;0.00;0.00;;;14.20;93.90;;;;;;5030834;28;20056;-71
2022/06/06 04:19:32;;;;;;;0.10;0.10;;;14.20;93.80;;;;;;5029936;28;20421;-71
2022/06/06 04:22:10;;;;;;;0.00;0.00;;;14.10;93.70;;;;;;5008747;28;20057;-70
2022/06/06 04:25:08;;;;;;;0.00;0.00;;;14.10;93.70;;;;;;5024823;28;20206;-70
2022/06/06 04:27:47;;;;;;;0.00;0.00;;;14.10;93.70;;;;;;5031292;28;20548;-70
2022/06/06 04:30:32;;;;;;;0.00;0.00;;;14.10;93.70;;;;;;5030985;28;20077;-70
2022/06/06 04:33:19;;;;;;;0.00;0.00;;;14.10;93.80;;;;;;5030949;28;20049;-70
2022/06/06 04:35:47;;;;;;;0.22;0.22;;;14.00;93.80;;;;;;5030877;28;20050;-70
2022/06/06 04:38:51;;;;;;;7.22;2.83;;;14.10;93.70;;;;;;5029254;28;20055;-70
2022/06/06 04:41:35;;;;;;;0.00;0.00;;;14.00;93.70;;;;;;5030066;28;20049;-70
2022/06/06 04:44:07;;;;;;;0.05;0.05;;;13.90;93.70;;;;;;5043798;28;20080;-70
2022/06/06 04:46:58;;;;;;;0.00;0.00;;;14.00;93.70;;;;;;5030579;28;20403;-70
2022/06/06 04:49:27;;;;;;;0.28;0.28;;;13.90;93.60;;;;;;5027835;28;20058;-70
2022/06/06 04:51:53;;;;;;;0.00;0.00;;;13.90;93.60;;;;;;5030690;28;20136;-70
2022/06/06 04:54:22;;;;;;;0.00;0.00;;;13.90;93.70;;;;;;5030263;28;20075;-71
2022/06/06 04:56:50;;;;;;;0.00;0.00;;;13.90;93.60;;;;;;5030502;28;20041;-71
2022/06/06 04:59:18;;;;;;;0.05;0.05;;;13.90;93.50;;;;;;5030407;28;20049;-70
2022/06/06 05:01:44;;;;;;;0.00;0.00;;;13.80;93.40;;;;;;5030197;28;20501;-71
2022/06/06 05:04:09;;;;;;;0.00;0.00;;;13.80;93.40;;;;;;5029377;28;20099;-71
2022/06/06 05:06:51;;;;;;;0.00;0.00;;;13.80;93.40;;;;;;5030200;28;20057;-71
2022/06/06 05:09:43;;;;;;;;;;;13.70;93.10;;;;;;5030571;28;20052;-69
2022/06/06 05:12:23;;;;;;;0.00;0.00;;;13.70;93.30;;;;;;5029098;28;20016;-70
2022/06/06 05:15:07;;;;;;;0.00;0.00;;;13.70;93.10;;;;;;5029916;28;20560;-70
2022/06/06 05:18:12;;;;;;;0.00;0.00;;;13.70;93.10;;;;;;5028733;28;20055;-70
2022/06/06 05:20:50;;;;;;;1.08;0.30;;;13.60;93.10;;;;;;5029237;28;20124;-70
2022/06/06 05:23:30;;;;;;;0.05;0.05;;;13.60;93.00;;;;;;5029916;28;20052;-70
2022/06/06 05:26:02;;;;;;;0.00;0.00;;;13.60;92.90;;;;;;5029428;28;20044;-69
2022/06/06 05:28:28;;;;;;;;;;;13.60;92.90;;;;;;5029081;28;20162;-69
2022/06/06 05:31:20;;;;;;;0.00;0.00;;;13.60;92.90;;;;;;5029468;28;20021;-70
2022/06/06 05:33:52;;;;;;;0.20;0.20;;;13.60;92.80;;;;;;5028363;28;20095;-70
2022/06/06 05:36:41;;;;;;;0.00;0.00;;;13.60;92.80;;;;;;5029230;28;20056;-70
2022/06/06 05:39:38;;;;;;;0.00;0.00;;;13.50;92.90;;;;;;5029515;28;20095;-70
2022/06/06 05:42:24;;;;;;;0.25;0.25;;;13.60;92.80;;;;;;5018411;28;20132;-70
2022/06/06 05:45:19;;;;;;;0.05;0.05;;;13.60;92.80;;;;;;5028851;28;20049;-70
2022/06/06 05:47:51;;;;;;;0.00;0.00;;;13.50;92.90;;;;;;5029299;28;20080;-70
2022/06/06 05:50:27;;;;;;;0.00;0.00;;;13.50;92.90;;;;;;5029512;28;20076;-70
2022/06/06 05:53:04;;;;;;;0.08;0.08;;;13.50;92.90;;;;;;5029579;28;20049;-70
2022/06/06 05:55:30;;;;;;;0.80;0.80;;;13.40;93.00;;;;;;5044808;28;20051;-70
2022/06/06 05:58:23;;;;;;;0.13;0.13;;;13.50;93.00;;;;;;5029143;28;20130;-70
2022/06/06 06:01:09;;;;;;;0.10;0.10;;;13.40;93.10;;;;;;5027342;28;20083;-70
2022/06/06 06:03:47;;;;;;;0.00;0.00;;;13.40;93.00;;;;;;5028525;28;20107;-71
2022/06/06 06:06:25;;;;;;;0.00;0.00;;;13.40;92.90;;;;;;5026844;28;20046;-70
2022/06/06 06:08:58;;;;;;;0.20;0.20;;;13.50;92.90;;;;;;5028818;28;20041;-70
2022/06/06 06:11:51;;;;;;;0.00;0.00;;;13.60;92.70;;;;;;5028637;28;20060;-70
2022/06/06 06:14:41;;;;;;;0.00;0.00;;;13.60;92.40;;;;;;5028821;28;20053;-70
2022/06/06 06:17:07;;;;;;;0.00;0.00;;;13.50;92.10;;;;;;5028710;28;20045;-71
2022/06/06 06:19:48;;;;;;;0.00;0.00;;;13.50;92.10;;;;;;5028651;28;20052;-71
2022/06/06 06:22:17;;;;;;;0.00;0.00;;;13.60;92.10;;;;;;5028556;28;20503;-71
2022/06/06 06:24:43;;;;;;;0.00;0.00;;;13.60;91.80;;;;;;5028685;28;20052;-70
2022/06/06 06:27:11;;;;;;;0.00;0.00;;;13.60;91.90;;;;;;5028859;28;20081;-70
2022/06/06 06:29:37;;;;;;;0.00;0.00;;;13.60;91.60;;;;;;5028914;28;20133;-70
2022/06/06 06:32:14;;;;;;;0.10;0.10;;;13.60;91.50;;;;;;5028494;28;20128;-70
2022/06/06 06:35:14;;;;;;;0.00;0.00;;;13.70;91.40;;;;;;5028588;28;20064;-71
2022/06/06 06:38:32;;;;;;;0.00;0.00;;;13.70;91.10;;;;;;5028763;28;20046;-71
2022/06/06 06:41:36;;;;;;;0.03;0.03;;;13.70;90.90;;;;;;5007069;28;20046;-71
2022/06/06 06:44:13;;;;;;;0.00;0.00;;;13.80;90.70;;;;;;5027620;28;20620;-71
2022/06/06 06:46:43;;;;;;;0.63;0.38;;;13.80;90.00;;;;;;5028577;28;20183;-70
2022/06/06 06:49:27;;;;;;;0.00;0.00;;;13.90;89.70;;;;;;5028782;28;20046;-70
2022/06/06 06:52:02;;;;;;;0.00;0.00;;;14.00;89.90;;;;;;5028538;28;20033;-70
2022/06/06 06:54:51;;;;;;;0.00;0.00;;;14.10;89.20;;;;;;5028857;28;20048;-70
2022/06/06 06:57:52;;;;;;;0.00;0.00;;;14.10;89.00;;;;;;5027645;28;20084;-70
2022/06/06 07:00:21;;;;;;;0.00;0.00;;;14.20;88.20;;;;;;5016460;28;20529;-71
2022/06/06 07:09:06;;;;;;;0.03;0.03;;;14.10;88.50;;;;;;5025415;28;20041;-70
2022/06/06 07:11:55;;;;;;;0.00;0.00;;;14.10;88.60;;;;;;5028644;28;20053;-70
2022/06/06 07:14:47;;;;;;;0.10;0.10;;;14.10;88.30;;;;;;5028230;28;20045;-70
2022/06/06 07:17:14;;;;;;;0.00;0.00;;;14.10;88.40;;;;;;5028278;28;20056;-70
2022/06/06 07:19:52;;;;;;;0.00;0.00;;;14.10;88.20;;;;;;5010981;28;20129;-70
2022/06/06 07:22:18;;;;;;;0.00;0.00;;;14.00;88.10;;;;;;5028426;28;20042;-71
2022/06/06 07:24:45;;;;;;;0.08;0.08;;;14.00;88.20;;;;;;5028359;28;20045;-71
2022/06/06 07:27:12;;;;;;;0.00;0.00;;;14.10;88.30;;;;;;5027554;28;20545;-71
2022/06/06 07:29:38;;;;;;;0.52;0.52;;;14.10;88.10;;;;;;5028676;28;20049;-70
2022/06/06 07:32:10;;;;;;;0.00;0.00;;;14.10;88.10;;;;;;5030138;28;20101;-70
2022/06/06 07:35:13;;;;;;;0.20;0.20;;;14.00;88.50;;;;;;5032069;28;20045;-71
2022/06/06 07:38:03;;;;;;;0.00;0.00;;;14.00;88.70;;;;;;5031961;28;20044;-71
2022/06/06 07:40:37;;;;;;;0.00;0.00;;;14.00;89.10;;;;;;5031671;28;20490;-71
2022/06/06 07:43:20;;;;;;;0.00;0.00;;;14.10;89.50;;;;;;5031471;28;20175;-71
2022/06/06 07:45:49;;;;;;;0.00;0.00;;;14.10;89.50;;;;;;5031903;28;20176;-70
2022/06/06 07:48:19;;;;;;;0.00;0.00;;;14.10;89.70;;;;;;5031009;28;20037;-71
2022/06/06 07:50:59;;;;;;;0.10;0.10;;;14.20;89.80;;;;;;5031371;28;20391;-71
2022/06/06 07:53:40;;;;;;;0.00;0.00;;;14.30;89.40;;;;;;5031159;28;20079;-71
2022/06/06 07:56:24;;;;;;;0.00;0.00;;;14.40;89.20;;;;;;5028863;28;20046;-70
2022/06/06 07:59:05;;;;;;;0.00;0.00;;;14.50;89.30;;;;;;5016661;28;20096;-69
2022/06/06 08:01:50;;;;;;;0.00;0.00;;;14.60;89.10;;;;;;5026652;28;20041;-69
2022/06/06 08:04:40;;;;;;;0.00;0.00;;;14.60;88.60;;;;;;5032476;28;20053;-69
2022/06/06 08:07:33;;;;;;;0.00;0.00;;;14.60;88.00;;;;;;5031821;28;20052;-69
2022/06/06 08:10:09;;;;;;;0.00;0.00;;;14.70;87.40;;;;;;5031696;28;20426;-69
2022/06/06 08:12:44;;;;;;;0.00;0.00;;;14.80;87.50;;;;;;5031630;28;20449;-69
2022/06/06 08:15:28;;;;;;;0.00;0.00;;;14.90;87.00;;;;;;5043412;28;20406;-69
2022/06/06 08:18:32;;;;;;;0.00;0.00;;;15.00;87.00;;;;;;5032364;28;20076;-70
2022/06/06 08:21:02;;;;;;;0.00;0.00;;;15.00;85.60;;;;;;5031922;28;20045;-70
2022/06/06 08:23:33;;;;;;;0.00;0.00;;;15.00;86.00;;;;;;5032028;28;20549;-69
2022/06/06 08:26:00;;;;;;;0.40;0.40;;;15.00;86.50;;;;;;5014085;28;20050;-70
2022/06/06 08:28:26;;;;;;;0.00;0.00;;;14.90;86.50;;;;;;5031962;28;20053;-70
2022/06/06 08:30:51;;;;;;;0.00;0.00;;;14.90;86.60;;;;;;5032085;28;20037;-69
2022/06/06 08:33:17;;;;;;;0.08;0.08;;;14.70;86.50;;;;;;5031709;28;20122;-70
2022/06/06 08:36:21;;;;;;;0.00;0.00;;;14.80;87.00;;;;;;5026969;28;20048;-70
2022/06/06 08:39:25;;;;;;;0.00;0.00;;;14.60;87.20;;;;;;5030784;28;20054;-70
2022/06/06 08:42:12;;;;;;;0.00;0.00;;;14.60;87.90;;;;;;5031719;28;20116;-70
2022/06/06 08:45:15;;;;;;;0.00;0.00;;;14.60;87.80;;;;;;5031990;28;20050;-70
2022/06/06 08:48:17;;;;;;;0.20;0.20;;;14.60;88.30;;;;;;5030307;28;20644;-70
2022/06/06 08:50:46;;;;;;;;;;;14.60;88.70;;;;;;5031768;28;20128;-71
2022/06/06 08:53:22;;;;;;;0.00;0.00;;;14.60;88.60;;;;;;5031202;28;19968;-70
2022/06/06 08:56:25;;;;;;;0.00;0.00;;;14.60;88.80;;;;;;5025873;28;20041;-71
2022/06/06 08:58:56;;;;;;;0.00;0.00;;;14.60;88.70;;;;;;5020378;28;20387;-71
2022/06/06 09:01:25;;;;;;;0.63;0.63;;;14.60;88.60;;;;;;5029982;28;20140;-71
2022/06/06 09:04:28;;;;;;;0.20;0.20;;;14.60;88.80;;;;;;5030361;28;20041;-71
2022/06/06 09:07:24;;;;;;;2.05;1.95;;;14.60;88.70;;;;;;5029848;28;20038;-71
2022/06/06 09:10:18;;;;;;;0.00;0.00;;;14.60;89.00;;;;;;5036319;28;20060;-71
2022/06/06 09:12:58;;;;;;;0.20;0.20;;;14.70;89.00;;;;;;5029580;28;20060;-70
2022/06/06 09:15:34;;;;;;;0.00;0.00;;;14.80;88.80;;;;;;5029566;28;20052;-71
2022/06/06 09:18:02;;;;;;;0.00;0.00;;;14.80;88.70;;;;;;5029661;28;20124;-70
2022/06/06 09:20:47;;;;;;;0.10;0.10;;;15.00;88.00;;;;;;5029661;28;20159;-70
2022/06/06 09:23:50;;;;;;;0.10;0.10;;;15.10;87.10;;;;;;5029614;28;20056;-70
2022/06/06 09:26:19;;;;;;;1.65;0.77;;;15.30;87.00;;;;;;5028809;28;20044;-69
2022/06/06 09:29:09;;;;;;;0.00;0.00;;;15.30;84.20;;;;;;5018414;28;20512;-69
2022/06/06 09:31:59;;;;;;;0.03;0.03;;;15.50;83.40;;;;;;5030235;28;20107;-69
2022/06/06 09:34:59;;;;;;;0.10;0.10;;;15.60;83.20;;;;;;5029210;28;20124;-69
2022/06/06 09:37:42;;;;;;;1.48;0.25;;;15.80;84.00;;;;;;5029469;28;20046;-69
2022/06/06 09:40:30;;;;;;;0.00;0.00;;;16.00;83.00;;;;;;5028009;28;20037;-68
2022/06/06 09:43:08;;;;;;;0.10;0.10;;;15.90;81.90;;;;;;5024750;28;20049;-68
2022/06/06 09:45:56;;;;;;;0.30;0.30;;;16.10;82.10;;;;;;5028887;28;20605;-68
2022/06/06 09:48:55;;;;;;;0.00;0.00;;;16.20;80.90;;;;;;5029413;28;20137;-68
2022/06/06 09:51:57;;;;;;;0.00;0.00;;;16.20;79.10;;;;;;5028288;28;20053;-68
2022/06/06 10:00:21;;;;;;;1.08;1.05;;;16.40;79.80;;;;;;5018645;28;20045;-69
2022/06/06 10:03:16;;;;;;;0.00;0.00;;;16.50;78.40;;;;;;5018780;28;20069;-69
2022/06/06 10:06:12;;;;;;;0.00;0.00;;;16.40;78.20;;;;;;5009748;28;20057;-69
2022/06/06 10:08:59;;;;;;;0.00;0.00;;;16.60;78.70;;;;;;5020026;28;20547;-69
2022/06/06 10:11:49;;;;;;;0.00;0.00;;;16.70;77.50;;;;;;5013499;28;20050;-69
2022/06/06 10:14:53;;;;;;;0.80;0.80;;;16.80;77.00;;;;;;5023400;28;20627;-69
2022/06/06 10:17:39;;;;;;;0.70;0.70;;;16.80;75.50;;;;;;5013286;28;20057;-69
2022/06/06 10:20:16;;;;;;;0.00;0.00;;;16.60;72.70;;;;;;5020617;28;20494;-69
2022/06/06 10:22:57;;;;;;;0.10;0.10;;;16.60;73.40;;;;;;5027916;28;20049;-69
2022/06/06 10:25:34;;;;;;;0.00;0.00;;;16.60;74.10;;;;;;5027649;28;20045;-69
2022/06/06 10:28:09;;;;;;;0.00;0.00;;;16.80;74.40;;;;;;5027467;28;20053;-69
2022/06/06 10:31:05;;;;;;;0.00;0.00;;;16.90;73.30;;;;;;5010662;28;20501;-69
2022/06/06 10:33:58;;;;;;;0.30;0.30;;;17.10;74.80;;;;;;5018155;28;20052;-68
2022/06/06 10:36:40;;;;;;;0.00;0.00;;;17.20;73.90;;;;;;5011191;28;20046;-66
2022/06/06 10:39:37;;;;;;;0.00;0.00;;;17.30;72.60;;;;;;5024963;28;20037;-71
2022/06/06 10:42:18;;;;;;;0.40;0.40;;;17.20;72.40;;;;;;5022766;28;20049;-68
2022/06/06 10:45:08;;;;;;;0.05;0.05;;;17.30;72.30;;;;;;5028920;28;20644;-68
2022/06/06 10:47:37;;;;;;;0.10;0.10;;;17.30;71.90;;;;;;5028953;28;20148;-68
2022/06/06 10:50:11;;;;;;;0.00;0.00;;;17.10;71.90;;;;;;5027820;28;20048;-68
2022/06/06 10:52:42;;;;;;;0.17;0.17;;;17.10;73.80;;;;;;5029044;28;20128;-68
2022/06/06 10:55:38;;;;;;;0.00;0.00;;;17.10;73.30;;;;;;5028809;28;20042;-67
2022/06/06 10:58:28;;;;;;;0.00;0.00;;;17.00;72.60;;;;;;5022430;28;20759;-67
2022/06/06 11:01:07;;;;;;;0.00;0.00;;;17.00;74.00;;;;;;5023397;28;20128;-68
2022/06/06 11:04:07;;;;;;;0.00;0.00;;;17.00;73.40;;;;;;5028709;28;20045;-67
2022/06/06 11:06:57;;;;;;;0.00;0.00;;;16.90;72.90;;;;;;5031610;28;20064;-68
2022/06/06 11:09:52;;;;;;;0.00;0.00;;;16.80;73.10;;;;;;5032097;28;20048;-68
2022/06/06 11:12:41;;;;;;;0.00;0.00;;;16.80;73.60;;;;;;5032539;28;20091;-68
2022/06/06 11:15:06;;;;;;;0.10;0.10;;;16.70;73.50;;;;;;5025043;28;20061;-68
2022/06/06 11:18:03;;;;;;;1.10;1.00;;;16.70;72.80;;;;;;5031924;28;20041;-68
2022/06/06 11:20:52;;;;;;;0.00;0.00;;;16.80;73.00;;;;;;5031332;28;20203;-68
2022/06/06 11:23:41;;;;;;;0.00;0.00;;;16.80;74.80;;;;;;5029956;28;20057;-67
2022/06/06 11:26:38;;;;;;;0.52;0.52;;;16.80;75.40;;;;;;5028661;28;20053;-68
2022/06/06 11:29:21;;;;;;;0.10;0.10;;;17.00;75.80;;;;;;5032039;28;20129;-68
2022/06/06 11:31:47;;;;;;;0.00;0.00;;;16.90;75.20;;;;;;5031892;28;20124;-69
2022/06/06 11:34:22;;;;;;;0.10;0.10;;;16.80;75.90;;;;;;5031563;28;20504;-68
2022/06/06 11:37:41;;;;;;;0.00;0.00;;;16.80;75.40;;;;;;5030871;28;20045;-68
2022/06/06 11:40:25;;;;;;;0.00;0.00;;;16.70;75.00;;;;;;5031140;28;20073;-69
2022/06/06 11:43:36;;;;;;;0.00;0.00;;;16.60;75.90;;;;;;5029759;28;20547;-68
2022/06/06 11:46:10;;;;;;;0.00;0.00;;;16.60;76.50;;;;;;5031610;28;20052;-68
2022/06/06 11:48:54;;;;;;;2.05;1.23;;;16.50;77.10;;;;;;5031063;28;20041;-68
2022/06/06 11:51:25;;;;;;;0.00;0.00;;;16.50;77.00;;;;;;5019914;28;20049;-68
2022/06/06 11:54:02;;;;;;;0.00;0.00;;;16.40;77.80;;;;;;5029858;28;20049;-68
2022/06/06 11:56:35;;;;;;;0.00;0.00;;;16.30;78.00;;;;;;5030847;28;20053;-68
2022/06/06 11:59:23;;;;;;;0.20;0.20;;;16.20;77.70;;;;;;5030237;28;20081;-68
2022/06/06 12:02:31;;;;;;;0.00;0.00;;;16.10;77.80;;;;;;5031475;28;20064;-68
2022/06/06 12:05:12;;;;;;;0.20;0.20;;;16.10;77.60;;;;;;5025507;28;20514;-68
2022/06/06 12:07:50;;;;;;;0.00;0.00;;;16.20;77.80;;;;;;5029939;28;20164;-68
2022/06/06 12:10:48;;;;;;;0.03;0.03;;;16.10;77.60;;;;;;5029928;28;20063;-68
2022/06/06 12:13:53;;;;;;;0.00;0.00;;;16.00;78.60;;;;;;4998200;28;20410;-68
2022/06/06 12:16:30;;;;;;;0.00;0.00;;;15.90;80.10;;;;;;5013569;28;20061;-68
2022/06/06 12:19:09;;;;;;;0.10;0.10;;;15.70;81.00;;;;;;5028932;28;20041;-68
2022/06/06 12:21:52;;;;;;;0.00;0.00;;;15.60;82.20;;;;;;5030805;28;20457;-68
2022/06/06 12:24:37;;;;;;;0.00;0.00;;;15.60;82.20;;;;;;5030478;28;20107;-68
2022/06/06 12:27:21;;;;;;;0.00;0.00;;;15.70;82.80;;;;;;5041073;28;20056;-68
2022/06/06 12:29:58;;;;;;;0.00;0.00;;;15.70;82.40;;;;;;5030723;28;20169;-69
2022/06/06 12:32:49;;;;;;;0.00;0.00;;;15.60;82.60;;;;;;5028454;28;20057;-68
2022/06/06 12:35:28;;;;;;;0.00;0.00;;;15.60;82.80;;;;;;5030756;28;20037;-68
2022/06/06 12:37:56;;;;;;;0.00;0.00;;;15.40;84.30;;;;;;5028921;28;20111;-68
2022/06/06 12:40:28;;;;;;;0.38;0.38;;;15.10;85.00;;;;;;5028358;28;20057;-69
2022/06/06 12:43:04;;;;;;;0.10;0.10;;;14.90;84.80;;;;;;5046274;28;20064;-68
2022/06/06 12:45:51;;;;;;;0.00;0.00;;;14.60;86.50;;;;;;5030677;28;20041;-68
2022/06/06 12:49:01;;;;;;;0.10;0.10;;;14.50;87.50;;;;;;5030602;28;20563;-68
2022/06/06 12:51:44;;;;;;;0.00;0.00;;;14.40;88.00;;;;;;5024730;28;20176;-68
2022/06/06 12:54:29;;;;;;;0.10;0.10;;;14.40;89.00;;;;;;5028235;28;20053;-68
2022/06/06 12:56:58;;;;;;;0.10;0.10;;;14.50;88.90;;;;;;5029232;28;20112;-68
2022/06/06 13:00:01;;;;;;;0.00;0.00;;;14.50;89.10;;;;;;5029520;28;20049;-68
2022/06/06 13:02:39;;;;;;;0.40;0.40;;;14.60;89.20;;;;;;5030295;28;20041;-68
2022/06/06 13:05:41;;;;;;;0.10;0.10;;;14.60;89.20;;;;;;5028529;28;20045;-68
2022/06/06 13:08:24;;;;;;;;;;;14.60;88.90;;;;;;5030262;28;20033;-65
2022/06/06 13:10:49;;;;;;;0.00;0.00;;;14.50;89.00;;;;;;5032499;28;19981;-69
2022/06/06 13:14:08;;;;;;;0.00;0.00;;;14.60;89.30;;;;;;5029509;28;20053;-69
2022/06/06 13:16:49;;;;;;;0.05;0.05;;;14.50;88.70;;;;;;5006192;28;20164;-67
2022/06/06 13:19:45;;;;;;;0.55;0.55;;;14.50;88.40;;;;;;5023819;28;20041;-67
2022/06/06 13:22:29;;;;;;;0.00;0.00;;;14.50;89.00;;;;;;5029854;28;20123;-68
2022/06/06 13:25:18;;;;;;;0.00;0.00;;;14.50;89.30;;;;;;5028789;28;20045;-68
2022/06/06 13:28:00;;;;;;;0.00;0.00;;;14.40;89.30;;;;;;5030664;28;20083;-68
2022/06/06 13:30:28;;;;;;;;;;;14.40;89.10;;;;;;5026719;28;20104;-68
2022/06/06 13:33:04;;;;;;;0.00;0.00;;;14.30;88.80;;;;;;5029217;28;19921;-67
2022/06/06 13:35:56;;;;;;;0.00;0.00;;;14.40;89.00;;;;;;5035783;28;20054;-67
2022/06/06 13:38:22;;;;;;;0.00;0.00;;;14.30;89.10;;;;;;5040905;28;20051;-67
2022/06/06 13:41:03;;;;;;;0.00;0.00;;;14.30;88.90;;;;;;5029878;28;20041;-68
2022/06/06 13:43:44;;;;;;;0.10;0.10;;;14.30;89.00;;;;;;5033721;28;20041;-68
2022/06/06 13:46:38;;;;;;;0.00;0.00;;;14.20;89.20;;;;;;5020318;28;20053;-67
2022/06/06 13:49:11;;;;;;;0.00;0.00;;;14.10;89.60;;;;;;5042272;28;20050;-67
2022/06/06 13:52:00;;;;;;;0.00;0.00;;;14.10;89.50;;;;;;5042123;28;20127;-67
2022/06/06 13:54:30;;;;;;;0.00;0.00;;;14.10;90.00;;;;;;5048452;28;20457;-69
2022/06/06 13:57:03;;;;;;;0.00;0.00;;;14.10;89.80;;;;;;5033792;28;20049;-68
2022/06/06 14:00:03;;;;;;;0.00;0.00;;;14.00;89.20;;;;;;5029085;28;20491;-68
2022/06/06 14:02:37;;;;;;;0.00;0.00;;;14.00;89.20;;;;;;5001098;28;20054;-68
2022/06/06 14:05:39;;;;;;;0.00;0.00;;;14.10;89.50;;;;;;5009523;28;20569;-68
2022/06/06 14:08:08;;;;;;;0.00;0.00;;;14.00;89.50;;;;;;5049045;28;20852;-68
2022/06/06 14:10:39;;;;;;;0.10;0.10;;;14.10;89.30;;;;;;5049115;28;20066;-68
2022/06/06 14:13:17;;;;;;;0.00;0.00;;;13.90;88.90;;;;;;5044526;28;20053;-68
2022/06/06 14:15:46;;;;;;;0.00;0.00;;;14.00;88.90;;;;;;5043493;28;20095;-68
2022/06/06 14:18:31;;;;;;;0.00;0.00;;;13.90;88.90;;;;;;5048914;28;20063;-69